Weather observations for the past three days for
Pope Army Airfield
Imperial (Metric)
Date Time (edt) Wind (mph) Vis. (mi.) Weather Sky Cond. Temperature (ºF) Relative Humidity Wind Chill (°F) Heat Index (°F) Pressure Precipitation (in)
Air Dwpt 6 hour altimeter (in) sea level (mb) 1 hr 3 hr 6 hr
Max. Min.
01 10:55 NW 8 10.00 Fair CLR 89.2 73.9 61% 98 30.09 1018.9
01 09:55 W 6 10.00 Fair CLR 85.8 75.2 71% 95 30.08 1018.6
01 08:55 W 5 10.00 Fair CLR 81 77 88% 88 30.09 1019.0
01 07:55 Calm 10.00 Fair CLR 76.6 75.7 77.9 75.6 97% 77 30.07 1018.3
01 06:55 SW 3 10.00 Fair CLR 75.2 68 78% 76 30.06 0.0
01 05:55 SW 6 10.00 Fair CLR 75.7 74.8 97% 75 30.06 1017.9
01 04:55 SW 3 10.00 Fair CLR 76.3 75.4 97% 76 30.06 1017.9
01 03:55 SW 5 10.00 Fair CLR 76.8 75.9 97% 77 30.07 1018.3
01 02:55 SW 6 10.00 Fair CLR 77.2 76.3 97% 78 30.07 1018.3
01 01:55 W 5 10.00 Fair CLR 78.1 76.1 86.7 77.4 94% 81 30.08 1018.6
01 00:55 S 6 10.00 Fair CLR 79.5 76.6 91% 84 30.08 1018.6
31 23:55 S 5 10.00 Fair CLR 80.4 75.4 85% 86 30.08 1018.6
31 22:55 Calm 10.00 Fair CLR 78.1 75.7 93% 81 30.07 1018.3
31 21:55 Calm 10.00 Fair CLR 78.6 75.7 91% 82 30.07 1018.3
31 20:55 SE 3 10.00 Fair CLR 85.1 70 61% 90 30.05 1017.6
31 18:55 E 5 10.00 Fair CLR 89.4 70.5 54% 95 30.03 1017.0
31 17:55 Calm 10.00 Fair CLR 92.3 67.1 44% 96 30.04 1017.3
31 16:55 S 3 10.00 Fair CLR 91.6 65.1 42% 94 30.04 1017.3
31 15:55 NE 5 10.00 Fair CLR 93 69.8 47% 99 30.06 1017.9
31 14:55 Calm 10.00 Fair CLR 92.7 69.4 47% 98 30.08 1018.6
31 13:55 NE 3 10.00 Fair CLR 91.4 71.2 91.4 71.6 52% 98 30.1 1019.3
31 12:55 Calm 10.00 Fair CLR 88.2 71.4 58% 94 30.1 1019.3
31 11:55 Calm 10.00 A Few Clouds FEW033 87.6 72.5 61% 95 30.12 1020.0
31 10:55 Calm 10.00 A Few Clouds FEW024 86.2 74.3 68% 95 30.12 1020.0
31 09:55 S 3 10.00 Fair CLR 82.2 76.5 83% 90 30.11 1019.7
31 08:55 Calm 10.00 Fair CLR 76.1 57.2 52% 78 30.12 1020.0
31 07:55 Calm 8.00 A Few Clouds FEW000 71.4 70.5 73.8 69.8 97% 30.11 1019.7
31 06:55 Calm 0.38 Fog VV000 70.7 69.8 97% 30.11 1019.7
31 05:55 Calm 10.00 Fair CLR 70 69.1 97% 30.1 1019.4
31 04:55 Calm 10.00 Fair CLR 70.5 69.6 97% 30.1 1019.3
31 03:55 Calm 10.00 Fair CLR 71.1 70.2 97% 30.1 1019.3
31 02:55 Calm 10.00 Fair CLR 72.1 71.2 97% 30.1 1019.3
31 01:55 Calm 10.00 Fair CLR 72.5 71.6 81.5 72.5 97% 30.12 1020.0
31 00:55 Calm 8.00 Fair CLR 73.2 72.3 97% 30.12 1020.0
30 23:55 Calm 10.00 Fair CLR 75.4 74.5 97% 74 30.12 1020.0
30 22:55 Calm 10.00 Fair CLR 75.2 74.3 97% 73 30.12 1020.0
30 21:55 Calm 10.00 Fair CLR 76.6 75.7 97% 77 30.12 1020.0
30 20:55 Calm 10.00 Fair CLR 78.3 75.9 93% 81 30.1 1019.4
30 19:55 E 3 10.00 Mostly Cloudy BKN037 81.7 72.9 87.1 81.5 75% 87 30.11 1019.7
30 18:55 E 3 10.00 Overcast BKN033 OVC047 82.9 72.1 70% 88 30.11 1019.7
30 17:55 E 6 10.00 Mostly Cloudy BKN035 86 71.4 62% 92 30.11 1019.7
30 16:55 N 3 10.00 Fair CLR 86.2 71.1 61% 92 30.1 1019.3
30 15:55 NW 5 10.00 Fair CLR 85.8 70.7 61% 91 30.12 1020.0
30 14:55 Calm 10.00 Fair CLR 85.5 71.8 64% 91 30.14 1020.7
30 13:55 Calm 10.00 A Few Clouds FEW170 FEW200 83.8 71.2 83.8 72 66% 89 30.16 1021.4
30 12:55 Calm 10.00 Partly Cloudy SCT023 81.7 72.1 73% 86 30.18 1022.1
30 11:55 E 5 10.00 Partly Cloudy SCT013 79.5 74.1 84% 84 30.2 1022.8
30 09:55 N 6 10.00 Overcast OVC005 75.4 74.5 97% 74 30.2 1022.8
30 08:55 NE 3 9.00 Overcast OVC003 73.4 72.5 97% 30.2 1022.8
30 07:55 NE 3 1.75 Fog/Mist OVC002 72 71.1 74.1 71.6 97% 30.19 1022.4
30 06:55 NE 3 5.00 Fog/Mist OVC003 72 71.1 97% 30.18 1022.1
30 05:55 NE 3 9.00 Overcast SCT003 SCT011 OVC022 72.5 71.6 97% 30.17 1021.7
30 04:55 Calm 10.00 Overcast OVC009 72.7 71.8 97% 30.16 1021.4
30 03:55 NE 3 9.00 Mostly Cloudy BKN008 72.1 71.2 97% 30.17 1021.7
30 02:55 NE 5 10.00 Overcast OVC005 73.4 72.5 97% 30.17 1021.7
30 01:55 Calm 10.00 Overcast OVC006 72.9 72 77 72.3 97% 30.18 1022.0
30 00:55 Calm 10.00 Mostly Cloudy BKN006 72.7 71.8 97% 30.18 1022.0
29 23:55 Calm 10.00 Fair CLR 73 72.1 97% 30.2 1022.7
29 22:55 NE 3 10.00 Fair CLR 73.4 72.5 97% 30.19 1022.4
29 21:55 NE 5 10.00 Fair CLR 74.5 72.5 94% 30.17 1021.7
29 20:55 E 5 10.00 Fair CLR 76.1 71.2 85% 77 30.16 1021.4
29 19:55 E 6 10.00 Fair CLR 77 71.8 84.7 77 84% 78 30.15 1021.1
29 18:55 E 5 10.00 Fair CLR 78.8 72 80% 82 30.12 1020.1
29 17:55 E 5 10.00 Fair CLR 80.2 72 76% 84 30.12 1020.1
29 16:55 E 6 10.00 A Few Clouds FEW049 FEW140 81.1 72 74% 86 30.13 1020.4
29 15:55 NE 6 10.00 Partly Cloudy SCT025 SCT055 83.7 72.3 69% 89 30.13 1020.4
29 14:55 E 7 10.00 Mostly Cloudy BKN024 BKN030 83.7 72.7 70% 90 30.14 1020.7
29 13:55 Calm 10.00 A Few Clouds FEW200 83.7 71.4 83.8 71.2 67% 89 30.16 1021.4
29 12:55 E 5 10.00 Partly Cloudy FEW027 FEW150 SCT200 82.4 71.6 70% 87 30.17 1021.7
Date Time (edt) Wind (mph) Vis. (mi.) Weather Sky Cond. Air Dwpt Max. Min. Relative Humidity Wind Chill (°F) Heat Index (°F) altimeter (in) sea level (mb) 1 hr 3 hr 6 hr
6 hour
Temperature (ºF) Pressure Precipitation (in)